Theodore Roosevelt National Park, ND

06:17 MDT le 05 septembre 2015 (GMT -0600)
Southview | | Change Station
CLOSE
Current Station
Stations météorologiques personnelles
Location: Dickinson, ND
Altitude: 2434 ft
Stations météo à proximité

Alt. 2434 ft 46.86 °N, 102.78 °W | Updated 3 minutes ago

Orage
Orage
60.2 ° F
Paraît 60.2 ° F
N
8.3
Vent Variable Vent de NE

Aujourd'hui
Haut(e) -- | Bas -- ° F
--% Risque de précip.
Hier
Haut(e) -- | Bas -- ° F
Precip. -- pouce
6:15 AM 7:23 PM
Lune gibbeuse décroissante, 49% visible
Pression 29.83 pouce
Visibilité 9.0 Miles terrestres
Nuages Peu 5500 ft
Nuages épars 7500 ft
Nuageux 11000 ft
Point de rosée 60 ° F
Humidité 99%
Précipitations 0.14 pouce
Profondeur de la couche neigeuse Non disponible.
UV 0 sur 12
Pollen 8.90 sur 12
Qualité de l'air Non disponible.
Flu Activity Non disponible.
SPECI KDIK 051209Z AUTO 09014KT 9SM FEW055 SCT075 BKN110 17/16 A2983 RMK AO2 LTG DSNT N-SE T01720161 $
Pression 29.83 pouce
Visibilité 9.0 Miles terrestres
Nuages Peu 5500 ft
Nuages épars 7500 ft
Nuageux 11000 ft
Point de rosée 60 ° F
Humidité 99%
Précipitations 0.14 pouce
Profondeur de la couche neigeuse Non disponible.
UV 0 sur 12
Pollen 8.90 sur 12
Qualité de l'air Non disponible.
Flu Activity Non disponible.
SPECI KDIK 051209Z AUTO 09014KT 9SM FEW055 SCT075 BKN110 17/16 A2983 RMK AO2 LTG DSNT N-SE T01720161 $

10-Day Weather Forecast

×

Almanac

Astronomie

Sep. 05, 2015 Lever Coucher
Temps réel
Crépuscule civil
Crépuscule nautique
Crépuscule astronomique
Lune
Durée de lumière visible
Longueur du jour
Tomorrow will be .
, % of the Moon is Illuminated

Extrêmes aujourd'hui

State Highs State Lows

Community

WunderPhotos

Upload Photos

1,852,455 Photos téléchargées !

WunderBlogs® & News

Nearby

Qualité de l'air

  Qualité de l'air Indice de la qualité de l'air Polluant
Not available.

Épaisseur de neige

Station Depth Altitude

Activité sismique

Ville Distance Mag. Time & Date
Minimum magnitude displayed is 2.5.

Températures des eaux côtières

Lieu Température

Stations

Stations météo à proximité

Emplacement de la station Température Refroidissement éolien Point de rosée Humidité Vent Precip. Alt. Mise à jour Type